Truth Or Consequences Municipal Airport
KTCS : now visible

Airfield :











YOU CAN JOIN US ON...

 
LOGIN :

Register | Disclaimer

   EN    FR    IT 

 









Legend :    VFR   Marginal VFR   IFR   Intensive IFR   Very Intensive IFR
Visi :
Ceiling :
>= 8 km
>= 3000ft
5 to 8 km
1000 to 3000 ft
1500m to 5 km
500 to 1000 ft
800 to 1500m
200 to 500 ft
< 800m
< 200 ft
Symbols :   Thunderstorms  Fog  Heavy snow  Heavy precipitations  Wind > 20 kt






- Airport Elevation : 4853 ft


KTCS - Truth Or Consequences Municipal

CURRENT METAR :
  • 160653Z AUTO 32011KT 10SM CLR 07/M07 A2993 RMK AO2 SLP089 T00671067 401890067

EXPIRED METARs :
  • 160553Z AUTO 34007KT 10SM CLR 08/M07 A2991 RMK AO2 SLP082 T00781067 10156 20067 53025
  • 160453Z AUTO 02003KT 10SM CLR 09/M05 A2988 RMK AO2 SLP070 T00891050

TAF KTCS
Valid from the 16 at 06:00 until the 17 at 06:00 UTC


160533Z 1606/1706 34007KT P6SM SKC WS015/30033KT
FM161700 35012KT P6SM SCT250



MET'MAP, your aeronautical weather chart ! - Copyright ORBIFLY December 2007 - Disclaimer

ORBIFLY MET'MAP TEAM :

Programming & Development : Alexandra Zaïnal
Concept & original design : Baudouin d'Aumeries
Assistance for programming : Marc-Olivier Méhu
Technical & hardware support : Manuel Goepfert

Contact : metmap@orbifly.com




SOURCES & CREDITS :

   NOAA       Earth
Advisory